Time;durP1;ratioP1;P1;durP2;ratioP2;P2;SDS_P1;SDS_P2;PMS_P1;PMS_P2;Temp;Humidity;BMP_temperature;BMP_pressure;BME280_temperature;BME280_humidity;BME280_pressure;Samples;Min_cycle;Max_cycle;Signal;HPM_P1;HPM_P2
2021/05/29 00:01:59;;;;;;;3.10;2.90;;;11.40;99.90;;;;;;6236218;23;20593;-92
2021/05/29 00:04:25;;;;;;;3.87;3.57;;;11.40;99.90;;;;;;6209436;23;20163;-93
2021/05/29 00:06:51;;;;;;;3.80;3.30;;;11.40;99.90;;;;;;6210534;23;20583;-93
2021/05/29 00:09:16;;;;;;;4.67;3.83;;;11.30;99.90;;;;;;6209993;23;20261;-93
2021/05/29 00:11:42;;;;;;;3.47;3.17;;;11.30;99.90;;;;;;6208741;23;20155;-92
2021/05/29 00:14:08;;;;;;;3.60;3.10;;;11.30;99.90;;;;;;6210172;23;20209;-93
2021/05/29 00:16:33;;;;;;;3.00;2.80;;;11.30;99.90;;;;;;6236547;23;20151;-94
2021/05/29 00:18:59;;;;;;;4.50;3.23;;;11.30;99.90;;;;;;6209915;23;20253;-92
2021/05/29 00:21:25;;;;;;;3.83;3.53;;;11.30;99.90;;;;;;6205880;23;20262;-92
2021/05/29 00:23:51;;;;;;;3.90;3.47;;;11.30;99.90;;;;;;6210920;23;20167;-93
2021/05/29 00:26:16;;;;;;;3.00;2.80;;;11.30;99.90;;;;;;6211925;23;20155;-92
2021/05/29 00:28:42;;;;;;;3.47;3.17;;;11.40;99.90;;;;;;6209605;23;20167;-93
2021/05/29 00:31:08;;;;;;;5.63;3.50;;;11.50;99.90;;;;;;6209481;23;20498;-93
2021/05/29 00:33:34;;;;;;;3.37;3.07;;;11.50;99.90;;;;;;6211214;23;20653;-93
2021/05/29 00:35:59;;;;;;;3.20;3.00;;;11.50;99.90;;;;;;6212972;23;20159;-92
2021/05/29 00:38:25;;;;;;;3.47;3.17;;;11.50;99.90;;;;;;6213707;23;20405;-93
2021/05/29 00:40:51;;;;;;;3.20;2.90;;;11.50;99.90;;;;;;6209060;23;20468;-93
2021/05/29 00:43:16;;;;;;;3.60;3.30;;;11.50;99.90;;;;;;6210164;23;20155;-94
2021/05/29 00:46:04;;;;;;;3.10;2.80;;;11.50;99.90;;;;;;6208584;23;20160;-93
2021/05/29 00:48:30;;;;;;;4.67;3.70;;;11.30;99.90;;;;;;6210095;23;20173;-94
2021/05/29 00:51:01;;;;;;;3.87;3.57;;;11.20;99.90;;;;;;6207443;23;20413;-92
2021/05/29 00:53:29;;;;;;;3.50;3.30;;;11.20;99.90;;;;;;6209298;23;20487;-94
2021/05/29 00:55:57;;;;;;;5.20;3.60;;;11.20;99.90;;;;;;6211350;23;20402;-94
2021/05/29 00:58:23;;;;;;;3.77;3.47;;;11.30;99.90;;;;;;6209717;23;20385;-92
2021/05/29 01:00:50;;;;;;;3.50;3.20;;;11.30;99.90;;;;;;6208737;23;20727;-94
2021/05/29 01:03:16;;;;;;;4.83;3.83;;;11.30;99.90;;;;;;6212003;23;20394;-93
2021/05/29 01:05:43;;;;;;;3.83;3.53;;;11.30;99.90;;;;;;6210198;23;20388;-93
2021/05/29 01:08:08;;;;;;;4.67;3.80;;;11.30;99.90;;;;;;6210451;23;20238;-93
2021/05/29 01:10:35;;;;;;;4.70;4.30;;;11.30;99.90;;;;;;6210576;23;20626;-92
2021/05/29 01:13:03;;;;;;;4.03;3.63;;;11.30;99.90;;;;;;6211211;23;20198;-92
2021/05/29 01:15:36;;;;;;;4.13;3.70;;;11.30;99.90;;;;;;6209740;23;20906;-93
2021/05/29 01:18:03;;;;;;;3.67;3.37;;;11.30;99.90;;;;;;6211179;23;20476;-92
2021/05/29 01:20:29;;;;;;;5.20;4.43;;;11.30;99.90;;;;;;6211305;23;20390;-92
2021/05/29 01:22:56;;;;;;;5.60;3.93;;;11.20;99.90;;;;;;6210170;23;20775;-93
2021/05/29 01:25:37;;;;;;;3.90;3.60;;;11.20;99.90;;;;;;6210223;23;20205;-93
2021/05/29 01:28:25;;;;;;;4.30;3.80;;;11.20;99.90;;;;;;6208087;23;20409;-92
2021/05/29 01:30:56;;;;;;;3.80;3.50;;;11.10;99.90;;;;;;6210043;23;20397;-93
2021/05/29 01:33:30;;;;;;;3.73;3.20;;;11.10;99.90;;;;;;6210921;23;20445;-92
2021/05/29 01:36:03;;;;;;;3.33;3.03;;;11.10;99.90;;;;;;6159779;23;20450;-92
2021/05/29 01:38:30;;;;;;;4.07;3.67;;;11.10;99.90;;;;;;6211526;23;20391;-93
2021/05/29 01:41:08;;;;;;;3.40;3.13;;;11.00;99.90;;;;;;6212848;23;20413;-92
2021/05/29 01:43:38;;;;;;;4.10;3.70;;;11.10;99.90;;;;;;6210700;23;20390;-93
2021/05/29 01:46:05;;;;;;;4.57;4.20;;;11.20;99.90;;;;;;6237284;23;20432;-93
2021/05/29 01:48:34;;;;;;;7.73;4.60;;;11.20;99.90;;;;;;6208216;23;20402;-93
2021/05/29 01:51:01;;;;;;;4.93;4.43;;;11.20;99.90;;;;;;6209878;23;20741;-92
2021/05/29 01:53:28;;;;;;;5.17;4.67;;;11.10;99.90;;;;;;6209521;23;20476;-93
2021/05/29 01:55:53;;;;;;;5.60;4.07;;;11.00;99.90;;;;;;6212178;23;20741;-92
2021/05/29 01:58:22;;;;;;;6.40;4.90;;;11.00;99.90;;;;;;6209180;23;20374;-93
2021/05/29 02:00:47;;;;;;;5.47;4.97;;;10.90;99.90;;;;;;6210618;23;21172;-92
2021/05/29 02:03:13;;;;;;;5.30;4.80;;;10.70;99.90;;;;;;6210166;23;20166;-92
2021/05/29 02:05:40;;;;;;;5.60;4.30;;;10.70;99.90;;;;;;6211000;23;20405;-92
2021/05/29 02:08:07;;;;;;;5.27;4.77;;;10.70;99.90;;;;;;6209968;23;20570;-93
2021/05/29 02:10:35;;;;;;;5.30;4.87;;;10.90;99.90;;;;;;6210762;23;20414;-93
2021/05/29 02:13:10;;;;;;;5.03;4.30;;;10.80;99.90;;;;;;6210086;23;20462;-92
2021/05/29 02:15:39;;;;;;;4.90;4.50;;;10.70;99.90;;;;;;6237191;23;20484;-93
2021/05/29 02:18:08;;;;;;;6.10;5.50;;;10.60;99.90;;;;;;6210846;23;20397;-92
2021/05/29 02:20:45;;;;;;;6.23;5.63;;;10.60;99.90;;;;;;6210415;23;20393;-93
2021/05/29 02:23:15;;;;;;;5.60;5.20;;;10.60;99.90;;;;;;6211107;23;20535;-93
2021/05/29 02:25:41;;;;;;;6.00;5.40;;;10.60;99.90;;;;;;6210251;23;20734;-93
2021/05/29 02:28:07;;;;;;;6.20;5.60;;;10.60;99.90;;;;;;6211684;23;20401;-93
2021/05/29 02:30:34;;;;;;;5.57;5.07;;;10.60;99.90;;;;;;6211257;23;20390;-93
2021/05/29 02:33:04;;;;;;;4.93;4.53;;;10.60;99.90;;;;;;6210885;23;20544;-93
2021/05/29 02:35:41;;;;;;;5.33;4.83;;;10.60;99.90;;;;;;6209853;23;20401;-92
2021/05/29 02:38:07;;;;;;;6.77;6.07;;;10.70;99.90;;;;;;6211601;23;20451;-93
2021/05/29 02:40:34;;;;;;;5.90;4.57;;;10.70;99.90;;;;;;6210079;23;20400;-93
2021/05/29 02:43:00;;;;;;;4.70;4.30;;;10.60;99.90;;;;;;6211188;23;20409;-93
2021/05/29 02:45:26;;;;;;;5.23;4.60;;;10.60;99.90;;;;;;6211234;23;20402;-93
2021/05/29 02:47:54;;;;;;;4.67;4.27;;;10.70;99.90;;;;;;6237455;23;20989;-93
2021/05/29 02:50:20;;;;;;;4.00;3.70;;;10.80;99.90;;;;;;6210878;23;20437;-94
2021/05/29 02:52:47;;;;;;;5.03;4.63;;;10.80;99.90;;;;;;6210597;23;20436;-93
2021/05/29 02:55:21;;;;;;;4.57;4.17;;;10.80;99.90;;;;;;6212905;23;20394;-93
2021/05/29 02:57:46;;;;;;;5.40;4.83;;;10.70;99.90;;;;;;6210716;23;20382;-92
2021/05/29 03:00:13;;;;;;;4.87;4.47;;;10.60;99.90;;;;;;6210877;23;20398;-92
2021/05/29 03:02:39;;;;;;;5.03;4.47;;;10.50;99.90;;;;;;6211080;23;20155;-92
2021/05/29 03:05:06;;;;;;;4.57;4.13;;;10.40;99.90;;;;;;6213209;23;20970;-93
2021/05/29 03:07:32;;;;;;;4.20;3.87;;;10.40;99.90;;;;;;6211519;23;20162;-93
2021/05/29 03:09:58;;;;;;;4.27;3.97;;;10.40;99.90;;;;;;6210360;23;20402;-92
2021/05/29 03:12:24;;;;;;;5.13;4.73;;;10.40;99.90;;;;;;6209775;23;20183;-93
2021/05/29 03:14:50;;;;;;;5.10;4.30;;;10.50;99.90;;;;;;6209692;23;20408;-93
2021/05/29 03:17:16;;;;;;;4.33;3.93;;;10.60;99.90;;;;;;6210499;23;20389;-92
2021/05/29 03:19:42;;;;;;;4.43;4.03;;;10.70;99.90;;;;;;6210923;23;20163;-92
2021/05/29 03:22:07;;;;;;;6.00;4.30;;;10.70;99.90;;;;;;6213147;23;20440;-92
2021/05/29 03:24:33;;;;;;;4.17;3.87;;;10.60;99.90;;;;;;6205773;23;20259;-93
2021/05/29 03:26:59;;;;;;;4.93;4.43;;;10.60;99.90;;;;;;6210623;23;20163;-92
2021/05/29 03:29:24;;;;;;;3.83;3.53;;;10.60;99.90;;;;;;6210513;23;20171;-93
2021/05/29 03:31:50;;;;;;;4.60;3.60;;;10.60;99.90;;;;;;6210521;23;20163;-94
2021/05/29 03:34:16;;;;;;;6.03;4.97;;;10.60;99.90;;;;;;6209408;23;20248;-93
2021/05/29 03:36:41;;;;;;;4.70;3.93;;;10.70;99.90;;;;;;6236726;23;20178;-92
2021/05/29 03:39:07;;;;;;;4.40;4.00;;;10.70;99.90;;;;;;6210574;23;20483;-93
2021/05/29 03:41:33;;;;;;;4.60;4.20;;;10.60;99.90;;;;;;6210016;23;20158;-93
2021/05/29 03:44:00;;;;;;;5.10;3.97;;;10.60;99.90;;;;;;6210234;23;20213;-91
2021/05/29 03:46:26;;;;;;;4.53;4.10;;;10.60;99.90;;;;;;6209572;23;20189;-93
2021/05/29 03:48:52;;;;;;;4.13;3.83;;;10.50;99.90;;;;;;6208219;23;20390;-92
2021/05/29 03:51:18;;;;;;;4.70;4.30;;;10.50;99.90;;;;;;6210145;23;20907;-92
2021/05/29 03:53:44;;;;;;;4.80;4.40;;;10.50;99.90;;;;;;6234636;23;21545;-93
2021/05/29 03:56:24;;;;;;;4.70;4.30;;;10.40;99.90;;;;;;6207975;23;20398;-92
2021/05/29 03:58:52;;;;;;;4.13;3.83;;;10.30;99.90;;;;;;6182148;23;20393;-93
2021/05/29 04:01:17;;;;;;;4.17;3.83;;;10.40;99.90;;;;;;6209219;23;20490;-91
2021/05/29 04:03:43;;;;;;;5.13;4.47;;;10.50;99.90;;;;;;6209790;23;20410;-93
2021/05/29 04:06:09;;;;;;;4.90;4.50;;;10.50;99.90;;;;;;6210314;23;20172;-92
2021/05/29 04:08:37;;;;;;;5.47;4.97;;;10.40;99.90;;;;;;6210154;23;20238;-94
2021/05/29 04:11:03;;;;;;;8.10;5.00;;;10.40;99.90;;;;;;6210142;23;20440;-93
2021/05/29 04:13:33;;;;;;;5.80;4.97;;;10.50;99.90;;;;;;6210000;23;20587;-93
2021/05/29 04:16:05;;;;;;;5.30;4.40;;;10.50;99.90;;;;;;6209764;23;20167;-94
2021/05/29 04:18:33;;;;;;;5.20;4.67;;;10.60;99.90;;;;;;6209554;23;20501;-93
2021/05/29 04:20:59;;;;;;;6.10;5.53;;;10.80;99.90;;;;;;6208930;23;20917;-93
2021/05/29 04:23:24;;;;;;;6.70;4.93;;;10.80;99.90;;;;;;6212752;23;20162;-94
2021/05/29 04:25:50;;;;;;;6.00;5.43;;;10.90;99.90;;;;;;6212498;23;20154;-92
2021/05/29 04:28:16;;;;;;;4.87;4.37;;;11.00;99.90;;;;;;6213278;23;20613;-93
2021/05/29 04:30:42;;;;;;;5.67;5.10;;;11.10;99.90;;;;;;6212786;23;20169;-94
2021/05/29 04:33:10;;;;;;;5.40;5.00;;;11.20;99.90;;;;;;6213978;23;20198;-94
2021/05/29 04:35:35;;;;;;;5.07;4.67;;;11.20;99.90;;;;;;6212039;23;20163;-94
2021/05/29 04:38:01;;;;;;;5.53;5.03;;;11.20;99.90;;;;;;6213247;23;20412;-94
2021/05/29 04:40:27;;;;;;;5.40;5.00;;;11.30;99.90;;;;;;6212953;23;20252;-94
2021/05/29 04:42:54;;;;;;;6.50;5.80;;;11.40;99.90;;;;;;6211578;23;20545;-93
2021/05/29 04:45:25;;;;;;;5.40;4.90;;;11.60;99.90;;;;;;6212173;23;20625;-93
2021/05/29 04:47:53;;;;;;;6.97;4.17;;;11.70;99.90;;;;;;6210263;23;20402;-93
2021/05/29 04:50:19;;;;;;;5.47;4.90;;;11.80;99.90;;;;;;6210302;23;20905;-94
2021/05/29 04:52:45;;;;;;;4.73;4.33;;;11.90;99.90;;;;;;6214860;23;20422;-94
2021/05/29 04:55:11;;;;;;;4.87;4.50;;;12.00;99.90;;;;;;6214690;23;20524;-94
2021/05/29 04:57:37;;;;;;;5.77;4.50;;;12.10;99.90;;;;;;6213263;23;20378;-94
2021/05/29 05:00:08;;;;;;;4.03;3.73;;;12.20;99.90;;;;;;6212251;23;20408;-92
2021/05/29 05:02:34;;;;;;;4.17;3.77;;;12.30;99.90;;;;;;6212615;23;20151;-94
2021/05/29 05:05:00;;;;;;;5.70;3.90;;;12.30;99.90;;;;;;6212261;23;20400;-94
2021/05/29 05:07:33;;;;;;;4.20;3.90;;;12.40;99.90;;;;;;6240416;23;20157;-94
2021/05/29 05:09:58;;;;;;;4.23;3.93;;;12.40;99.90;;;;;;6211235;23;20404;-94
2021/05/29 05:12:24;;;;;;;5.43;4.17;;;12.40;99.90;;;;;;6206936;23;20751;-95
2021/05/29 05:14:49;;;;;;;4.17;3.87;;;12.50;99.90;;;;;;6211278;23;20167;-95
2021/05/29 05:17:18;;;;;;;5.00;4.60;;;12.50;99.90;;;;;;6212301;23;20163;-94
2021/05/29 05:19:49;;;;;;;6.10;4.10;;;12.60;99.90;;;;;;6211195;23;20159;-94
2021/05/29 05:22:18;;;;;;;5.10;4.60;;;12.70;99.90;;;;;;6212788;23;20476;-94
2021/05/29 05:24:53;;;;;;;5.80;4.70;;;12.70;99.90;;;;;;6218225;23;20396;-94
2021/05/29 05:27:19;;;;;;;4.60;4.20;;;12.80;99.90;;;;;;6210261;23;20680;-94
2021/05/29 05:30:09;;;;;;;5.00;4.60;;;12.90;99.90;;;;;;6209306;23;20485;-94
2021/05/29 05:35:21;;;;;;;5.87;4.83;;;12.90;99.90;;;;;;6238482;23;20413;-94
2021/05/29 05:37:47;;;;;;;4.77;4.37;;;12.90;99.90;;;;;;6212313;23;20389;-94
2021/05/29 05:40:13;;;;;;;4.93;4.57;;;12.90;99.90;;;;;;6211247;23;20784;-94
2021/05/29 05:42:39;;;;;;;4.87;4.40;;;12.90;99.90;;;;;;6210509;23;20385;-94
2021/05/29 05:45:06;;;;;;;4.87;4.47;;;12.80;99.90;;;;;;6212667;23;20390;-93
2021/05/29 05:47:32;;;;;;;4.53;4.13;;;12.80;99.90;;;;;;6211703;23;20495;-93
2021/05/29 05:49:58;;;;;;;5.07;4.57;;;12.80;99.90;;;;;;6209425;23;20404;-95
2021/05/29 05:52:24;;;;;;;26.97;5.67;;;12.80;99.90;;;;;;6211188;23;20182;-96
2021/05/29 05:54:52;;;;;;;4.10;3.80;;;12.90;99.90;;;;;;6208662;23;20692;-94
2021/05/29 05:57:18;;;;;;;4.00;3.70;;;13.00;99.90;;;;;;6211452;23;20397;-94
2021/05/29 05:59:45;;;;;;;6.23;4.40;;;13.10;99.90;;;;;;6210183;23;20926;-94
2021/05/29 06:02:10;;;;;;;3.83;3.50;;;13.20;99.90;;;;;;6210350;23;20178;-95
2021/05/29 06:04:36;;;;;;;3.60;3.30;;;13.20;99.90;;;;;;6209765;23;20398;-95
2021/05/29 06:07:02;;;;;;;3.77;3.47;;;13.20;99.90;;;;;;6212039;23;20166;-95
2021/05/29 06:09:28;;;;;;;3.80;3.57;;;13.30;99.90;;;;;;6209792;23;20208;-94
2021/05/29 06:11:54;;;;;;;5.63;3.43;;;13.40;99.90;;;;;;6208401;23;20961;-94
2021/05/29 06:19:50;;;;;;;3.17;2.97;;;13.70;99.90;;;;;;6236235;23;20388;-94
2021/05/29 06:22:15;;;;;;;3.50;2.97;;;13.80;99.90;;;;;;6208782;23;20390;-94
2021/05/29 06:24:41;;;;;;;3.87;2.90;;;13.90;99.90;;;;;;6211195;23;20163;-94
2021/05/29 06:27:07;;;;;;;3.77;3.47;;;14.00;99.90;;;;;;6209994;23;20159;-95
2021/05/29 06:29:33;;;;;;;2.90;2.70;;;14.10;99.90;;;;;;6237666;23;20155;-95
2021/05/29 06:31:59;;;;;;;4.07;2.93;;;14.00;99.90;;;;;;6210867;23;20394;-94
2021/05/29 06:34:24;;;;;;;3.73;3.30;;;13.90;99.90;;;;;;6210654;23;20712;-94
2021/05/29 06:36:51;;;;;;;3.43;3.17;;;13.90;99.90;;;;;;6209792;23;20394;-93
2021/05/29 06:39:17;;;;;;;3.30;3.10;;;14.00;99.90;;;;;;6208393;23;20167;-94
2021/05/29 06:41:43;;;;;;;4.03;3.60;;;14.20;99.90;;;;;;6209110;23;20405;-94
2021/05/29 06:44:10;;;;;;;3.43;3.13;;;14.30;99.90;;;;;;6208193;23;21184;-91
2021/05/29 06:46:39;;;;;;;3.10;2.90;;;14.40;99.90;;;;;;6208840;23;20463;-90
2021/05/29 06:49:06;;;;;;;3.20;3.00;;;14.60;99.90;;;;;;6211672;23;20394;-92
2021/05/29 06:59:37;;;;;;;4.57;4.10;;;14.60;99.90;;;;;;6232018;23;20485;-92
2021/05/29 07:02:04;;;;;;;4.13;3.73;;;14.90;99.90;;;;;;6180557;23;20727;-92
2021/05/29 07:04:29;;;;;;;5.23;3.00;;;15.10;99.90;;;;;;6204944;23;20253;-92
2021/05/29 07:06:55;;;;;;;2.80;2.60;;;15.10;98.10;;;;;;6206833;23;20414;-91
2021/05/29 07:09:21;;;;;;;3.73;2.67;;;15.20;98.60;;;;;;6205425;22;20683;-90
2021/05/29 07:11:47;;;;;;;3.20;2.90;;;15.30;99.80;;;;;;6232873;23;20615;-89
2021/05/29 07:14:13;;;;;;;3.27;3.07;;;15.50;98.30;;;;;;6233583;23;20194;-89
2021/05/29 07:16:41;;;;;;;3.10;2.80;;;15.60;97.40;;;;;;6234518;23;20396;-89
2021/05/29 07:19:10;;;;;;;3.57;3.00;;;15.70;97.80;;;;;;6235280;23;20925;-90
2021/05/29 07:21:38;;;;;;;3.00;2.70;;;15.70;97.50;;;;;;6232333;23;20390;-89
2021/05/29 07:24:04;;;;;;;3.17;2.90;;;15.80;97.60;;;;;;6231941;23;21067;-89
2021/05/29 07:26:30;;;;;;;2.70;2.50;;;15.80;98.20;;;;;;6233208;23;20398;-90
2021/05/29 07:28:56;;;;;;;2.97;2.70;;;15.70;97.70;;;;;;6231691;23;20857;-90
2021/05/29 07:31:22;;;;;;;3.03;2.73;;;15.80;97.10;;;;;;6232256;23;20655;-90
2021/05/29 07:33:51;;;;;;;5.83;3.10;;;16.00;96.80;;;;;;6233105;23;20205;-90
2021/05/29 07:36:17;;;;;;;2.77;2.50;;;16.20;96.70;;;;;;6231448;23;20481;-89
2021/05/29 07:38:43;;;;;;;2.50;2.30;;;16.40;96.50;;;;;;6232661;23;20802;-89
2021/05/29 07:41:09;;;;;;;2.63;2.43;;;16.50;95.60;;;;;;6231741;23;20397;-89
2021/05/29 07:43:34;;;;;;;2.73;2.53;;;16.60;95.90;;;;;;6233434;23;20731;-89
2021/05/29 07:46:00;;;;;;;3.40;3.03;;;16.60;95.10;;;;;;6208296;23;20220;-90
2021/05/29 07:51:01;;;;;;;2.53;2.33;;;16.70;94.40;;;;;;6235842;22;20412;-89
2021/05/29 07:53:43;;;;;;;3.50;2.83;;;16.70;93.70;;;;;;6232731;23;20445;-89
2021/05/29 07:56:17;;;;;;;2.63;2.40;;;16.40;94.00;;;;;;6230606;23;20386;-89
2021/05/29 07:58:43;;;;;;;2.43;2.23;;;16.40;93.10;;;;;;6227678;23;20406;-89
2021/05/29 08:01:10;;;;;;;3.00;2.27;;;16.60;93.90;;;;;;6234299;23;20425;-90
2021/05/29 08:03:37;;;;;;;3.00;2.70;;;16.90;93.30;;;;;;6230459;23;20406;-90
2021/05/29 08:06:08;;;;;;;2.80;2.07;;;17.20;93.40;;;;;;6232032;23;20394;-90
2021/05/29 08:08:34;;;;;;;4.90;2.83;;;17.30;91.60;;;;;;6229236;23;20382;-89
2021/05/29 08:11:01;;;;;;;2.63;2.40;;;17.20;91.40;;;;;;6229136;23;20402;-90
2021/05/29 08:13:27;;;;;;;2.40;2.20;;;17.20;91.60;;;;;;6228619;23;20516;-89
2021/05/29 08:15:53;;;;;;;3.60;2.30;;;17.40;92.70;;;;;;6228752;23;20576;-89
2021/05/29 08:18:20;;;;;;;2.57;2.20;;;17.30;89.80;;;;;;6228691;23;20415;-89
2021/05/29 08:20:51;;;;;;;2.53;2.30;;;17.20;90.50;;;;;;6229910;23;20392;-90
2021/05/29 08:23:17;;;;;;;2.93;2.00;;;17.40;91.40;;;;;;6229201;23;20421;-91
2021/05/29 08:25:43;;;;;;;2.57;2.37;;;17.50;90.40;;;;;;6229871;23;20389;-90
2021/05/29 08:28:09;;;;;;;2.53;2.00;;;17.50;90.50;;;;;;6229131;23;20405;-89
2021/05/29 08:30:35;;;;;;;3.20;1.90;;;17.60;89.20;;;;;;6229897;23;20397;-90
2021/05/29 08:33:01;;;;;;;8.30;3.10;;;17.70;91.30;;;;;;6229258;23;20194;-90
2021/05/29 08:35:27;;;;;;;33.13;5.70;;;17.80;91.80;;;;;;6229119;23;20561;-89
2021/05/29 08:37:53;;;;;;;2.47;2.10;;;18.00;90.60;;;;;;6231623;23;20429;-90
2021/05/29 08:40:21;;;;;;;3.33;2.17;;;17.70;89.80;;;;;;6231372;23;20171;-90
2021/05/29 08:42:47;;;;;;;2.00;1.90;;;18.00;91.40;;;;;;6230433;23;20163;-90
2021/05/29 08:45:14;;;;;;;10.33;2.53;;;18.30;89.00;;;;;;6229339;23;20390;-91
2021/05/29 08:47:40;;;;;;;9.73;2.93;;;18.60;90.90;;;;;;6230886;23;20788;-90
2021/05/29 08:50:07;;;;;;;5.97;2.80;;;19.10;89.30;;;;;;6229738;23;20393;-90
2021/05/29 08:52:36;;;;;;;2.40;2.13;;;19.10;83.10;;;;;;6232339;23;20475;-90
2021/05/29 08:55:07;;;;;;;2.43;2.13;;;19.00;86.90;;;;;;6232949;23;20389;-90
2021/05/29 08:57:33;;;;;;;2.47;2.20;;;19.40;82.00;;;;;;6234002;23;20398;-90
2021/05/29 09:00:02;;;;;;;8.00;2.40;;;20.00;84.90;;;;;;6231974;23;20412;-91
2021/05/29 09:02:29;;;;;;;4.30;2.20;;;19.90;82.70;;;;;;6233835;23;20398;-90
2021/05/29 09:04:59;;;;;;;2.10;2.00;;;19.30;81.30;;;;;;6229416;23;20385;-90
2021/05/29 09:07:26;;;;;;;2.80;2.60;;;19.00;84.80;;;;;;6233281;23;20693;-90
2021/05/29 09:10:15;;;;;;;2.47;2.07;;;18.70;83.50;;;;;;6234702;23;20444;-91
2021/05/29 09:13:14;;;;;;;2.87;1.73;;;18.30;81.90;;;;;;6182261;22;20524;-89
2021/05/29 09:15:48;;;;;;;2.40;2.30;;;18.10;86.10;;;;;;6150840;23;20944;-89
2021/05/29 09:18:26;;;;;;;2.43;2.20;;;17.80;83.20;;;;;;6151571;23;20395;-89
2021/05/29 09:20:52;;;;;;;2.50;2.10;;;17.50;80.50;;;;;;6150510;23;20387;-89
2021/05/29 09:23:18;;;;;;;2.20;2.00;;;17.50;83.10;;;;;;6152007;23;20392;-96
2021/05/29 09:25:53;;;;;;;3.40;1.83;;;18.10;86.00;;;;;;6151889;23;20405;-88
2021/05/29 09:28:25;;;;;;;2.50;2.10;;;18.80;86.70;;;;;;6148133;23;20515;-89
2021/05/29 09:30:54;;;;;;;2.03;1.80;;;19.30;82.60;;;;;;6146125;23;20940;-95
2021/05/29 09:33:21;;;;;;;2.90;2.00;;;18.80;83.80;;;;;;6148935;23;20927;-95
2021/05/29 09:35:53;;;;;;;2.00;1.80;;;19.30;87.10;;;;;;6151190;23;20438;-94
2021/05/29 09:38:19;;;;;;;2.97;2.10;;;20.00;76.70;;;;;;6152196;23;20392;-94
2021/05/29 09:40:50;;;;;;;2.50;1.73;;;20.10;76.50;;;;;;6154276;23;20409;-93
2021/05/29 09:43:16;;;;;;;1.87;1.77;;;20.20;78.90;;;;;;6151175;23;20607;-91
2021/05/29 09:45:41;;;;;;;1.97;1.80;;;20.10;80.20;;;;;;6149063;23;20407;-94
2021/05/29 09:48:18;;;;;;;2.30;2.10;;;19.40;79.00;;;;;;6156535;23;20606;-94
2021/05/29 09:50:59;;;;;;;2.13;2.03;;;19.10;82.20;;;;;;6151587;23;20204;-95
2021/05/29 09:56:07;;;;;;;1.80;1.70;;;18.50;83.40;;;;;;6185205;23;20402;-90
2021/05/29 09:58:56;;;;;;;2.80;2.10;;;18.20;81.90;;;;;;6151005;23;20768;-90
2021/05/29 10:01:44;;;;;;;1.80;1.70;;;18.20;83.60;;;;;;6148788;23;20881;-91
2021/05/29 10:04:36;;;;;;;2.43;1.90;;;19.10;85.10;;;;;;6149012;23;20398;-93
2021/05/29 10:09:44;;;;;;;5.73;2.40;;;20.90;81.40;;;;;;6170060;23;20704;-92
2021/05/29 10:12:11;;;;;;;2.70;2.50;;;21.20;76.10;;;;;;6155561;23;20422;-92
2021/05/29 10:14:38;;;;;;;2.10;1.90;;;21.20;77.20;;;;;;6178372;23;20401;-90
2021/05/29 10:17:31;;;;;;;2.13;2.03;;;20.60;73.70;;;;;;6155099;23;20407;-92
2021/05/29 10:19:57;;;;;;;1.97;1.87;;;20.20;76.00;;;;;;6173682;23;20425;-90
2021/05/29 10:22:25;;;;;;;2.10;1.93;;;19.60;77.50;;;;;;6178661;23;20391;-90
2021/05/29 10:24:51;;;;;;;2.03;1.70;;;18.80;76.30;;;;;;6179661;23;20401;-90
2021/05/29 10:27:24;;;;;;;1.80;1.70;;;18.70;81.30;;;;;;6178484;23;20438;-89
2021/05/29 10:30:00;;;;;;;1.60;1.50;;;19.20;80.00;;;;;;6182258;23;20164;-89
2021/05/29 10:32:27;;;;;;;2.40;2.30;;;19.90;76.70;;;;;;6180258;23;20414;-91
2021/05/29 10:35:07;;;;;;;1.60;1.47;;;20.60;74.90;;;;;;6205781;23;20405;-91
2021/05/29 10:37:46;;;;;;;2.00;1.90;;;21.00;73.70;;;;;;6178505;23;20414;-91
2021/05/29 10:40:14;;;;;;;1.90;1.73;;;20.80;70.90;;;;;;6179322;23;20408;-91
2021/05/29 10:42:40;;;;;;;1.70;1.60;;;20.50;70.00;;;;;;6178787;23;20399;-90
2021/05/29 10:45:16;;;;;;;2.20;2.00;;;20.50;72.30;;;;;;6206014;23;20391;-90
2021/05/29 10:48:15;;;;;;;4.03;2.23;;;20.00;68.40;;;;;;6177053;23;20421;-90
2021/05/29 10:53:56;;;;;;;2.10;2.00;;;19.30;70.10;;;;;;6211270;23;20764;-92
2021/05/29 10:56:22;;;;;;;2.10;2.00;;;19.00;75.50;;;;;;6183102;23;20494;-92
2021/05/29 10:59:09;;;;;;;2.27;2.17;;;19.10;75.80;;;;;;6180367;23;20399;-93
2021/05/29 11:01:39;;;;;;;2.30;2.20;;;19.00;77.60;;;;;;6180982;23;20399;-94
2021/05/29 11:04:17;;;;;;;1.80;1.70;;;19.20;79.30;;;;;;6206500;23;20406;-93
2021/05/29 11:06:51;;;;;;;2.00;1.90;;;20.10;79.70;;;;;;6184037;23;20706;-93
2021/05/29 11:09:30;;;;;;;2.20;2.10;;;21.20;73.30;;;;;;6180772;23;20382;-94
2021/05/29 11:12:03;;;;;;;2.30;2.13;;;21.20;69.10;;;;;;6185503;23;20402;-95
2021/05/29 11:14:31;;;;;;;1.80;1.70;;;21.60;76.00;;;;;;6160538;23;20471;-93
2021/05/29 11:16:59;;;;;;;4.87;2.10;;;22.00;70.70;;;;;;6183071;23;20395;-95
2021/05/29 11:19:36;;;;;;;1.80;1.70;;;22.00;68.80;;;;;;6182633;23;20737;-93
2021/05/29 11:22:12;;;;;;;2.10;1.93;;;21.60;75.10;;;;;;6181277;23;20449;-94
2021/05/29 11:24:53;;;;;;;2.07;1.97;;;21.70;72.00;;;;;;6185234;23;20399;-91
2021/05/29 11:27:32;;;;;;;1.80;1.70;;;21.20;68.70;;;;;;6192012;23;20399;-93
2021/05/29 11:30:11;;;;;;;2.20;2.10;;;21.20;69.00;;;;;;6204764;23;20414;-94
2021/05/29 11:35:37;;;;;;;2.30;2.10;;;21.20;69.10;;;;;;6215361;23;20856;-95
2021/05/29 11:38:18;;;;;;;2.23;2.13;;;21.10;72.10;;;;;;6188028;23;20395;-94
2021/05/29 11:40:58;;;;;;;1.97;1.87;;;21.20;64.20;;;;;;6210611;23;20402;-95
2021/05/29 11:43:52;;;;;;;1.83;1.73;;;21.40;68.20;;;;;;6208344;23;20407;-93
2021/05/29 11:46:21;;;;;;;2.30;1.70;;;21.30;66.40;;;;;;6181900;23;20399;-92
2021/05/29 11:48:56;;;;;;;2.33;2.00;;;21.60;69.10;;;;;;6179936;23;20395;-95
2021/05/29 11:51:24;;;;;;;1.97;1.87;;;22.20;69.00;;;;;;6180164;23;20398;-95
2021/05/29 11:53:55;;;;;;;3.00;2.10;;;22.20;64.00;;;;;;6184757;23;20453;-94
2021/05/29 11:56:39;;;;;;;2.37;2.17;;;22.30;65.10;;;;;;6182094;23;20406;-94
2021/05/29 11:59:07;;;;;;;3.73;1.73;;;22.40;63.60;;;;;;6179721;23;20405;-94
2021/05/29 12:01:38;;;;;;;1.87;1.77;;;22.30;59.90;;;;;;6183127;23;20465;-95
2021/05/29 12:04:09;;;;;;;1.67;1.57;;;22.00;59.80;;;;;;6190329;23;20884;-94
2021/05/29 12:06:42;;;;;;;1.73;1.63;;;21.70;63.80;;;;;;6229038;23;20495;-95
2021/05/29 12:09:15;;;;;;;1.67;1.57;;;22.00;61.20;;;;;;6200590;23;20402;-95
2021/05/29 12:11:45;;;;;;;1.67;1.57;;;22.10;67.50;;;;;;6196247;23;20427;-96
2021/05/29 12:14:16;;;;;;;6.67;2.30;;;21.70;65.30;;;;;;6185948;23;20454;-91
2021/05/29 12:16:44;;;;;;;4.60;1.97;;;21.30;64.70;;;;;;6183147;23;20419;-93
2021/05/29 12:19:54;;;;;;;2.00;1.83;;;21.40;63.80;;;;;;6186095;23;20398;-90
2021/05/29 12:22:21;;;;;;;1.60;1.47;;;20.50;58.50;;;;;;6162825;23;20489;-94
2021/05/29 12:24:51;;;;;;;2.97;1.90;;;19.70;63.00;;;;;;6184485;23;20449;-96
2021/05/29 12:27:17;;;;;;;2.00;1.60;;;19.70;63.50;;;;;;6180021;23;20398;-94
2021/05/29 12:29:44;;;;;;;1.63;1.50;;;19.60;61.80;;;;;;6180174;23;20395;-93
2021/05/29 12:32:26;;;;;;;1.90;1.80;;;19.50;60.40;;;;;;6180049;23;20391;-93
2021/05/29 12:34:52;;;;;;;1.87;1.10;;;19.70;64.60;;;;;;6179669;23;20742;-92
2021/05/29 12:37:31;;;;;;;1.43;1.33;;;20.20;65.70;;;;;;6179866;23;20395;-93
2021/05/29 12:40:14;;;;;;;1.30;1.20;;;21.40;62.20;;;;;;6180370;23;20520;-93
2021/05/29 12:42:52;;;;;;;1.60;1.50;;;22.00;56.80;;;;;;6181375;23;20400;-94
2021/05/29 12:45:17;;;;;;;1.63;1.53;;;21.00;59.00;;;;;;6182361;23;20405;-93
2021/05/29 12:47:57;;;;;;;1.80;1.40;;;21.20;60.00;;;;;;6185496;23;20723;-93
2021/05/29 12:50:38;;;;;;;4.00;1.43;;;20.90;58.50;;;;;;6208405;23;20170;-94
2021/05/29 12:53:16;;;;;;;1.57;1.30;;;20.70;56.50;;;;;;6183485;23;20494;-94
2021/05/29 12:55:44;;;;;;;1.30;1.30;;;20.70;56.80;;;;;;6181732;23;20398;-94
2021/05/29 12:58:13;;;;;;;1.10;1.10;;;21.50;59.90;;;;;;6182560;23;20422;-93
2021/05/29 13:00:53;;;;;;;2.00;1.27;;;22.00;56.20;;;;;;6180624;23;20412;-94
2021/05/29 13:11:46;;;;;;;1.70;1.60;;;20.70;56.50;;;;;;6207939;23;20399;-94
2021/05/29 13:14:14;;;;;;;1.37;1.27;;;20.60;58.00;;;;;;6180718;23;20442;-92
2021/05/29 13:16:54;;;;;;;1.30;1.20;;;21.90;58.80;;;;;;6181525;23;20421;-92
2021/05/29 13:19:23;;;;;;;1.40;1.30;;;23.10;53.20;;;;;;6181254;23;20871;-93
2021/05/29 13:22:01;;;;;;;1.70;1.50;;;23.80;53.80;;;;;;6181110;23;20471;-93
2021/05/29 13:24:53;;;;;;;1.13;1.00;;;24.00;53.70;;;;;;6179501;23;20456;-93
2021/05/29 13:27:25;;;;;;;1.07;1.07;;;24.60;52.80;;;;;;6180829;23;20797;-92
2021/05/29 13:29:57;;;;;;;1.13;1.07;;;24.90;50.80;;;;;;6199271;23;20391;-93
2021/05/29 13:32:23;;;;;;;1.00;1.00;;;24.00;47.70;;;;;;6181173;23;20452;-92
2021/05/29 13:34:51;;;;;;;1.07;0.97;;;23.20;49.00;;;;;;6179905;23;20421;-93
2021/05/29 13:37:19;;;;;;;1.70;1.23;;;22.90;50.10;;;;;;6183264;23;20395;-95